Avalon School, Santa Catalina Island Weather observations

Data are for 10 minute period ending at time listed.
 Day   Time   Solar   Ave.   Ave.  Ave.  Vector    Max.   Stn.    Total
  of    of     Rad.   Air    Rel.  Wind   Wind     Wind   Baro.  Precip.
Year   Day            Temp.  Hum.  Speed  Dir.     Gust   Pres.         
2016   (PST)   W/m2    F      %     mph   deg.      mph    mb.     in.  
------------------------------------------------------------------------
  38   19:40    0.0    64   35.3     2    258.9     3.6    999.0   0.00  
  38   19:50    0.0    64   35.1     2    227.9     3.6    999.0   0.00  
  38   20:00    0.0    64   34.6     2    244.4     4.2    999.0   0.00  
  38   20:10    0.0    65   33.1     2    252.5     5.4    999.0   0.00  
  38   20:20    0.0    66   32.0     2    267.9     5.4    999.0   0.00  
  38   20:30    0.0    65   33.2     2    245.9     4.2    999.0   0.00  
  38   20:40    0.0    66   31.1     2    292.6     4.8    999.0   0.00  
  38   20:50    0.0    67   31.2     2    215.7     4.2    999.0   0.00  
  38   21:00    0.0    66   30.6     2    213.9     4.2    999.0   0.00  
  38   21:10    0.0    67   30.4     2    257.0     4.2    999.0   0.00  
  38   21:20    0.0    67   29.6     2    263.6     4.2    999.0   0.00  
  38   21:30    0.0    66   30.7     2    247.2     4.2    999.0   0.00  
  38   21:40    0.0    66   30.2     2    260.9     4.2    999.0   0.00  
  38   21:50    0.0    66   29.8     1    219.0     4.2    999.0   0.00  
  38   22:00    0.0    67   29.2     2    253.8     3.0    999.0   0.00  
  38   22:10    0.0    65   31.2     2    255.7     3.6    999.0   0.00  
  38   22:20    0.0    65   31.5     2    265.6     3.6    999.0   0.00  
  38   22:30    0.0    65   31.3     2    183.6     3.6    999.0   0.00  
  38   22:40    0.0    64   32.3     1    260.8     3.0    999.0   0.00  
  38   22:50    0.0    64   33.0     2    259.3     3.6    999.0   0.00  
  38   23:00    0.0    64   32.6     2    251.1     3.6    999.0   0.00  
  38   23:10    0.0    63   34.1     1    230.4     2.4    999.0   0.00  
  38   23:20    0.0    62   34.7     2    260.3     3.6    999.0   0.00  
  38   23:30    0.0    62   35.8     1    255.2     2.4    999.0   0.00  
  38   23:40    0.0    62   35.5     1    270.9     2.4    999.0   0.00  
  38   23:50    0.0    62   35.8     1    251.9     2.4    999.0   0.00  
  39    0:00    0.0    61   35.8     1    263.8     3.0    999.0   0.00  
  39    0:10    0.0    62   35.4     2    263.2     4.8    999.0   0.00  
  39    0:20    0.0    62   35.6     1    267.6     3.0    999.0   0.00  
  39    0:30    0.0    61   36.6     1    257.0     2.4    999.0   0.00  
  39    0:40    0.0    60   37.8     1    179.5     3.0    999.0   0.00  
  39    0:50    0.0    60   37.3     1    249.0     3.0    999.0   0.00  
  39    1:00    0.0    60   37.3     1    216.0     2.4    999.0   0.00  
  39    1:10    0.0    60   37.2     1    256.4     3.0    999.0   0.00  
  39    1:20    0.0    60   37.5     1    254.8     2.4    999.0   0.00  
  39    1:30    0.0    61   36.0     0    240.2     1.8    999.0   0.00  
  39    1:40    0.0    61   35.9     1    260.8     3.0    999.0   0.00  
  39    1:50    0.0    61   36.1     1    266.7     2.4    999.0   0.00  
  39    2:00    0.0    61   35.9     2    260.6     3.6    999.0   0.00  
  39    2:10    0.0    62   34.5     2    253.8     4.2    999.0   0.00  
  39    2:20    0.0    62   34.5     3    253.6     4.2    999.0   0.00  
  39    2:30    0.0    62   34.8     2    260.1     3.6    999.0   0.00  
  39    2:40    0.0    61   35.8     2    258.7     3.6    999.0   0.00  
  39    2:50    0.0    61   35.6     2    259.6     4.2    999.0   0.00  
  39    3:00    0.0    61   35.8     3    263.1     4.2    999.0   0.00  
  39    3:10    0.0    61   36.1     2    264.7     3.6    999.0   0.00  
  39    3:20    0.0    60   37.8     2    261.3     4.2    999.0   0.00  
  39    3:30    0.0    60   37.6     2    250.7     4.2    999.0   0.00  
  39    3:40    0.0    60   37.1     2    261.7     3.6    999.0   0.00  
  39    3:50    0.0    60   37.3     2    246.3     3.0    999.0   0.00  
  39    4:00    0.0    59   38.6     2    264.8     3.0    999.0   0.00  
  39    4:10    0.0    60   38.5     1    269.9     2.4    999.0   0.00  
  39    4:20    0.0    60   37.5     2    266.5     3.6    999.0   0.00  
  39    4:30    0.0    61   37.0     1    263.1     3.6    999.0   0.00  
  39    4:40    0.0    61   37.7     2    268.0     3.6    999.0   0.00  
  39    4:50    0.0    61   37.3     2    257.3     3.6    999.0   0.00  
  39    5:00    0.0    61   38.0     2    268.7     4.2    999.0   0.00  
  39    5:10    0.0    61   37.4     2    262.4     4.2    999.0   0.00  
  39    5:20    0.0    61   38.2     2    263.8     3.6    999.0   0.00  
  39    5:30    0.0    61   38.3     2    260.7     3.6    999.0   0.00  
  39    5:40    0.0    60   39.8     2    251.0     4.2    999.0   0.00  
  39    5:50    0.0    60   40.2     2    259.5     4.2    999.0   0.00  
  39    6:00    0.0    62   38.4     2    216.1     4.8    999.0   0.00  
  39    6:10    0.0    63   36.9     2    265.9     3.6    999.0   0.00  
  39    6:20    0.0    62   37.8     1    259.4     3.0    999.0   0.00  
  39    6:30    0.0    62   38.2     1    251.8     3.0    999.0   0.00  
  39    6:40    1.0    62   37.8     2    246.1     3.0    999.0   0.00  
  39    6:50    4.0    62   37.7     1    248.9     3.6    999.0   0.00  
  39    7:00    8.0    62   38.2     1    261.6     3.0    999.0   0.00  
  39    7:10   11.0    62   39.5     1    270.4     3.0    999.0   0.00  
  39    7:20   14.0    62   40.4     2    272.5     3.6    999.0   0.00  
  39    7:30   17.0    62   40.7     2    256.7     3.6    999.0   0.00  
  39    7:40   77.0    63   40.9     1    265.4     3.0    999.0   0.00  
  39    7:50  140.0    66   39.2     2    265.9     3.0    999.0   0.00  
  39    8:00  166.0    70   36.7     1     60.7     2.4    999.0   0.00  
  39    8:10  192.0    71   36.8     1    263.2     2.4    999.0   0.00  
  39    8:20  218.0    73   34.9     1     37.6     2.4    999.0   0.00  
  39    8:30  244.0    74   33.6     1    133.8     2.4    999.0   0.00  
  39    8:40  269.0    76   31.8     1    104.6     2.4    999.0   0.00  
  39    8:50  294.0    78   30.8     1     84.6     3.0    999.0   0.00  
  39    9:00  317.0    80   27.2     2    110.7     3.6    999.0   0.00  
  39    9:10  341.0    78   27.3     3    119.6     4.2    999.0   0.00  
  39    9:20  364.0    78   26.9     3    137.4     4.8    999.0   0.00  
  39    9:30  387.0    78   26.3     4    136.0     6.0    999.0   0.00  
  39    9:40  409.0    78   25.7     4    134.9     6.0    999.0   0.00  
  39    9:50  429.0    79   25.5     4    129.1     6.6    999.0   0.00  
  39   10:00  448.0    79   24.6     5    133.3     7.2    999.0   0.00  
  39   10:10  466.0    79   24.3     4    132.4     7.2    999.0   0.00  
  39   10:20  482.0    80   24.2     4    134.0     7.2    999.0   0.00  
  39   10:30  497.0    80   24.2     3    129.8     7.2    999.0   0.00  
  39   10:40  509.0    82   23.0     2    126.6     5.4    999.0   0.00  
  39   10:50  515.0    83   22.6     2    127.5     4.8    999.0   0.00  
  39   11:00  524.0    82   22.7     3    112.8     6.0    999.0   0.00  
  39   11:10  534.0    80   25.2     4    129.5     6.6    999.0   0.00  
  39   11:20  544.0    80   26.1     4    107.8     7.8    999.0   0.00  
  39   11:30  551.0    80   26.8     4    116.9     6.6    999.0   0.00  
  39   11:40  557.0    80   27.0     4    117.4     6.6    999.0   0.00  
  39   11:50  562.0    80   26.7     4    131.0     6.0    999.0   0.00  
  39   12:00  565.0    80   25.1     4    112.5     6.6    999.0   0.00  
  39   12:10  566.0    81   23.6     4    119.0     7.8    999.0   0.00  
  39   12:20  566.0    81   23.4     4    105.1     7.8    999.0   0.00  
  39   12:30  564.0    80   26.0     5    118.5     7.8    999.0   0.00  
  39   12:40  562.0    80   25.9     4    121.2     6.6    999.0   0.00  
  39   12:50  558.0    81   24.8     4    124.7     6.6    999.0   0.00  
  39   13:00  552.0    81   23.8     4    109.5     7.2    999.0   0.00  
  39   13:10  543.0    82   21.9     3    100.3     4.8    999.0   0.00  
  39   13:20  533.0    82   21.5     3    105.5     6.6    999.0   0.00  
  39   13:30  523.0    82   21.5     4    103.6     6.0    999.0   0.00  
  39   13:40  512.0    82   21.4     4    105.1     6.6    999.0   0.00  
  39   13:50  499.0    82   21.4     4     94.1     7.2    999.0   0.00  
  39   14:00  485.0    82   21.9     3     96.5     7.2    999.0   0.00  
  39   14:10  470.0    82   22.9     4     98.9     6.0    999.0   0.00  
  39   14:20  454.0    81   23.0     4     93.0     6.0    999.0   0.00  
  39   14:30  438.0    82   22.3     3    104.5     5.4    999.0   0.00  
  39   14:40  418.0    82   22.0     4    103.2     6.0    999.0   0.00  
  39   14:50  399.0    81   21.7     4    102.1     7.2    999.0   0.00  
  39   15:00  379.0    81   21.9     4    101.6     6.0    999.0   0.00  
  39   15:10  351.0    81   22.0     3    122.8     5.4    999.0   0.00  
  39   15:20  331.0    81   21.5     3    117.4     5.4    999.0   0.00  
  39   15:30  245.0    81   22.5     3    132.2     5.4    999.0   0.00  
  39   15:40   29.0    78   25.6     3    150.4     4.8    999.0   0.00  
  39   15:50   23.0    77   26.9     2    160.4     4.2    999.0   0.00  
  39   16:00   22.0    75   27.8     1    237.8     2.4    999.0   0.00  
  39   16:10   21.0    73   30.2     2    271.2     3.0    999.0   0.00  
  39   16:20   19.0    72   31.1     2    271.9     2.4    999.0   0.00  
  39   16:30   18.0    72   31.2     3    273.6     4.2    999.0   0.00  
  39   16:40   17.0    72   31.0     3    261.5     4.2    999.0   0.00  
  39   16:50   16.0    72   30.0     2    266.4     3.0    999.0   0.00  
  39   17:00   14.0    72   29.6     1    256.8     2.4    999.0   0.00  
  39   17:10   12.0    71   30.7     1    240.5     2.4    999.0   0.00  
  39   17:20    9.0    71   30.9     2    250.2     3.6    999.0   0.00  
  39   17:30    6.0    70   31.6     1    251.5     2.4    999.0   0.00  
  39   17:40    3.0    68   31.9     2    256.0     3.0    999.0   0.00  
  39   17:50    1.0    68   31.5     1    250.0     2.4    999.0   0.00  
  39   18:00    0.0    67   32.5     2    261.8     3.0    999.0   0.00  
  39   18:10    0.0    68   31.5     1    248.8     3.6    999.0   0.00  
  39   18:20    0.0    67   32.9     1    251.2     2.4    999.0   0.00  
  39   18:30    0.0    67   33.0     2    256.7     3.6    999.0   0.00  
  39   18:40    0.0    68   32.7     2    248.5     2.4    999.0   0.00  
  39   18:50    0.0    67   33.2     2    253.6     2.4    999.0   0.00  
  39   19:00    0.0    68   33.8     2    252.2     3.6    999.0   0.00  
  39   19:10    0.0    68   33.6     2    254.2     3.6    999.0   0.00  
  39   19:20    0.0    68   34.0     2    259.6     3.6    999.0   0.00  
  39   19:30    0.0    68   33.8     3    258.7     4.2    999.0   0.00  

Return to Avalon School graphs page.


Western Regional Climate Center,wrcc@dri.edu